createdAt,value
2023-06-12T00:00:48.429Z,8.43
2023-06-12T00:06:49.633Z,6.67
2023-06-12T00:12:50.901Z,8.53
2023-06-12T00:18:53.021Z,7.30
2023-06-12T00:24:54.264Z,7.77
2023-06-12T00:30:55.699Z,7.27
2023-06-12T00:36:58.104Z,7.20
2023-06-12T00:42:59.337Z,8.10
2023-06-12T00:49:02.552Z,8.50
2023-06-12T00:55:04.058Z,8.10
2023-06-12T01:01:05.338Z,8.03
2023-06-12T01:07:07.099Z,9.43
2023-06-12T01:13:10.921Z,8.83
2023-06-12T01:19:12.164Z,9.43
2023-06-12T01:25:14.214Z,9.10
2023-06-12T01:31:15.479Z,7.97
2023-06-12T01:37:16.764Z,8.37
2023-06-12T01:43:18.023Z,9.03
2023-06-12T01:49:19.231Z,8.63
2023-06-12T01:55:22.362Z,10.80
2023-06-12T02:01:25.025Z,8.00
2023-06-12T02:07:26.471Z,8.60
2023-06-12T02:13:27.709Z,8.43
2023-06-12T02:19:29.744Z,8.13
2023-06-12T02:25:33.278Z,8.07
2023-06-12T02:31:34.799Z,9.90
2023-06-12T02:37:36.304Z,10.30
2023-06-12T02:43:37.601Z,8.63
2023-06-12T02:49:45.153Z,11.87
2023-06-12T02:55:46.587Z,9.97
2023-06-12T03:01:48.038Z,8.60
2023-06-12T03:07:49.644Z,10.70
2023-06-12T03:13:51.086Z,10.00
2023-06-12T03:19:52.292Z,12.73
2023-06-12T03:25:53.489Z,12.57
2023-06-12T03:31:56.062Z,10.23
2023-06-12T03:37:57.282Z,9.90
2023-06-12T03:43:58.577Z,9.10
2023-06-12T03:49:59.791Z,10.83
2023-06-12T03:56:01.080Z,12.60
2023-06-12T04:02:02.508Z,9.63
2023-06-12T04:08:03.810Z,9.80
2023-06-12T04:14:05.006Z,10.67
2023-06-12T04:20:07.777Z,9.33
2023-06-12T04:26:09.086Z,10.70
2023-06-12T04:32:10.431Z,10.70
2023-06-12T04:38:12.028Z,14.00
2023-06-12T04:44:13.612Z,10.20
2023-06-12T04:50:15.112Z,12.00
2023-06-12T04:56:21.386Z,12.40
2023-06-12T05:02:22.946Z,12.23
2023-06-12T05:08:24.229Z,12.23
2023-06-12T05:14:25.565Z,12.23
2023-06-12T05:20:26.938Z,13.33
2023-06-12T05:26:28.176Z,12.77
2023-06-12T05:32:29.400Z,11.43
2023-06-12T05:38:30.958Z,12.57
2023-06-12T05:44:32.397Z,14.33
2023-06-12T05:50:33.731Z,13.37
2023-06-12T05:56:34.981Z,10.50
2023-06-12T06:02:36.540Z,10.33
2023-06-12T06:08:37.909Z,11.77
2023-06-12T06:14:40.310Z,13.50
2023-06-12T06:20:41.533Z,10.97
2023-06-12T06:26:42.753Z,12.20
2023-06-12T06:32:44.122Z,10.80
2023-06-12T06:38:45.344Z,11.30
2023-06-12T06:44:46.584Z,11.77
2023-06-12T06:50:47.825Z,10.47
2023-06-12T06:56:49.739Z,11.47
2023-06-12T07:02:51.058Z,10.67
2023-06-12T07:08:54.379Z,14.13
2023-06-12T07:14:55.971Z,13.43
2023-06-12T07:20:57.190Z,11.63
2023-06-12T07:26:58.411Z,13.80
2023-06-12T07:32:59.648Z,12.90
2023-06-12T07:39:01.194Z,11.90
2023-06-12T07:45:02.475Z,10.87
2023-06-12T07:51:03.737Z,13.30
2023-06-12T07:57:05.448Z,10.83
2023-06-12T08:03:25.217Z,10.27
2023-06-12T08:09:31.036Z,11.10
2023-06-12T08:15:32.350Z,11.23
2023-06-12T08:21:33.570Z,11.40
2023-06-12T08:27:34.915Z,11.47
2023-06-12T08:33:36.241Z,11.17
2023-06-12T08:39:37.619Z,11.47
2023-06-12T08:45:38.872Z,12.13
2023-06-12T08:51:40.091Z,12.07
2023-06-12T08:57:42.387Z,11.53
2023-06-12T09:03:43.745Z,12.53
2023-06-12T09:09:46.203Z,14.02
2023-06-12T09:15:47.544Z,12.93
2023-06-12T09:21:49.075Z,13.20
2023-06-12T09:27:51.074Z,12.45
2023-06-12T09:33:53.548Z,12.23
2023-06-12T09:39:54.887Z,13.43
2023-06-12T09:45:56.550Z,13.80
2023-06-12T09:51:59.694Z,12.23
2023-06-12T09:58:03.141Z,12.50
2023-06-12T10:04:04.903Z,13.05
2023-06-12T10:10:08.860Z,13.50
2023-06-12T10:16:10.134Z,13.38
2023-06-12T10:22:12.089Z,12.05
2023-06-12T10:28:13.327Z,12.63
2023-06-12T10:34:16.428Z,13.07
2023-06-12T10:40:23.988Z,13.20
2023-06-12T10:46:30.994Z,14.40
2023-06-12T10:52:32.414Z,14.07
2023-06-12T10:58:33.624Z,14.57
2023-06-12T11:04:34.935Z,14.57
2023-06-12T11:10:36.209Z,14.07
2023-06-12T11:16:37.505Z,14.65
2023-06-12T11:22:38.744Z,14.80
2023-06-12T11:28:40.005Z,14.90
2023-06-12T11:34:44.875Z,19.55
2023-06-12T11:40:46.201Z,15.60
2023-06-12T11:46:47.569Z,15.23
2023-06-12T11:52:50.029Z,16.00
2023-06-12T11:58:51.390Z,15.32
2023-06-12T12:04:52.655Z,15.95
2023-06-12T12:10:53.887Z,15.88
2023-06-12T12:16:55.088Z,16.20
2023-06-12T12:22:56.568Z,16.25
2023-06-12T12:28:58.108Z,15.43
2023-06-12T12:34:59.627Z,15.52
2023-06-12T12:41:01.117Z,15.23
2023-06-12T12:47:02.359Z,15.05
2023-06-12T12:53:03.603Z,16.08
2023-06-12T12:59:07.914Z,14.32
2023-06-12T13:05:09.278Z,15.00
2023-06-12T13:11:10.610Z,15.00
2023-06-12T13:17:11.897Z,15.75
2023-06-12T13:23:13.123Z,15.10
2023-06-12T13:29:14.385Z,15.38
2023-06-12T13:35:15.756Z,15.77
2023-06-12T13:41:17.882Z,15.82
2023-06-12T13:47:19.111Z,15.15
2023-06-12T13:53:20.498Z,15.63
2023-06-12T13:59:21.827Z,14.80
2023-06-12T14:05:23.215Z,15.48
2023-06-12T14:11:24.540Z,14.65
2023-06-12T14:17:25.902Z,15.85
2023-06-12T14:23:27.429Z,14.52
2023-06-12T14:29:28.627Z,15.25
2023-06-12T14:35:30.015Z,15.25
2023-06-12T14:41:31.232Z,15.73
2023-06-12T14:47:32.496Z,14.73
2023-06-12T14:53:34.512Z,15.02
2023-06-12T14:59:35.901Z,14.38
2023-06-12T15:05:37.164Z,13.00
2023-06-12T15:11:38.358Z,15.25
2023-06-12T15:17:39.760Z,14.60
2023-06-12T15:23:41.358Z,14.82
2023-06-12T15:29:42.644Z,15.48
2023-06-12T15:35:45.909Z,14.32
2023-06-12T15:41:47.132Z,14.43
2023-06-12T15:47:48.398Z,14.65
2023-06-12T15:53:49.723Z,14.10
2023-06-12T15:59:51.153Z,14.20
2023-06-12T16:05:52.451Z,14.43
2023-06-12T16:11:53.700Z,14.10
2023-06-12T16:17:55.031Z,13.90
2023-06-12T16:23:56.304Z,14.05
2023-06-12T16:29:57.574Z,13.40
2023-06-12T16:35:58.830Z,13.00
2023-06-12T16:42:00.145Z,13.50
2023-06-12T16:48:01.520Z,13.25
2023-06-12T16:54:02.815Z,12.68
2023-06-12T17:00:04.623Z,12.30
2023-06-12T17:06:05.828Z,12.38
2023-06-12T17:12:07.346Z,14.75
2023-06-12T17:18:08.642Z,12.00
2023-06-12T17:24:10.044Z,11.63
2023-06-12T17:30:11.685Z,10.77
2023-06-12T17:36:13.046Z,10.85
2023-06-12T17:42:14.464Z,10.88
2023-06-12T17:48:15.852Z,10.20
2023-06-12T17:54:17.100Z,10.18
2023-06-12T18:00:18.388Z,10.18
2023-06-12T18:06:19.611Z,10.10
2023-06-12T18:12:20.904Z,9.38
2023-06-12T18:18:22.245Z,9.77
2023-06-12T18:24:24.709Z,7.75
2023-06-12T18:30:26.046Z,10.07
2023-06-12T18:36:27.358Z,11.70
2023-06-12T18:42:28.588Z,10.23
2023-06-12T18:48:29.803Z,7.27
2023-06-12T18:54:31.147Z,11.50
2023-06-12T19:00:32.495Z,7.57
2023-06-12T19:06:34.930Z,7.43
2023-06-12T19:12:36.482Z,8.87
2023-06-12T19:18:37.701Z,7.07
2023-06-12T19:24:39.554Z,7.60
2023-06-12T19:30:40.876Z,7.23
2023-06-12T19:36:42.191Z,7.57
2023-06-12T19:42:43.392Z,9.10
2023-06-12T19:48:44.832Z,8.37
2023-06-12T19:54:46.057Z,6.00
2023-06-12T20:00:47.353Z,8.10
2023-06-12T20:06:48.590Z,12.47
2023-06-12T20:12:49.827Z,6.97
2023-06-12T20:18:51.073Z,8.37
2023-06-12T20:24:52.611Z,7.30
2023-06-12T20:30:53.967Z,6.70
2023-06-12T20:36:55.278Z,8.87
2023-06-12T20:42:56.496Z,6.60
2023-06-12T20:48:57.728Z,7.23
2023-06-12T20:54:58.972Z,7.37
2023-06-12T21:01:00.263Z,7.27
2023-06-12T21:07:01.522Z,6.63
2023-06-12T21:13:02.719Z,8.70
2023-06-12T21:19:04.005Z,7.57
2023-06-12T21:25:05.304Z,7.50
2023-06-12T21:31:06.658Z,8.10
2023-06-12T21:37:22.164Z,6.83
2023-06-12T21:43:24.761Z,9.70
2023-06-12T21:49:26.114Z,6.63
2023-06-12T21:55:27.345Z,8.30
2023-06-12T22:01:30.438Z,8.17
2023-06-12T22:07:31.876Z,11.93
2023-06-12T22:13:33.524Z,8.17
2023-06-12T22:19:34.858Z,7.10
2023-06-12T22:25:36.374Z,7.23
2023-06-12T22:31:37.759Z,7.87
2023-06-12T22:37:38.992Z,8.17
2023-06-12T22:43:40.226Z,7.73
2023-06-12T22:49:41.424Z,10.23
2023-06-12T22:55:42.838Z,8.43
2023-06-12T23:01:44.304Z,7.10
2023-06-12T23:07:47.018Z,9.80
2023-06-12T23:13:48.247Z,8.87
2023-06-12T23:19:50.798Z,8.83
2023-06-12T23:25:54.970Z,8.17
2023-06-12T23:31:56.558Z,8.00
2023-06-12T23:37:58.002Z,8.27
2023-06-12T23:43:59.235Z,8.67
2023-06-12T23:50:00.540Z,8.03
2023-06-12T23:56:01.781Z,8.17
